Time;durP1;ratioP1;P1;durP2;ratioP2;P2;SDS_P1;SDS_P2;PMS_P1;PMS_P2;Temp;Humidity;BMP_temperature;BMP_pressure;BME280_temperature;BME280_humidity;BME280_pressure;Samples;Min_cycle;Max_cycle;Signal;HPM_P1;HPM_P2
2021/09/06 00:01:47;;;;;;;13.60;5.50;;;;;;;6.36;75.51;100201.25;5112153;28;20039;-73
2021/09/06 00:04:13;;;;;;;17.00;5.82;;;;;;;6.32;76.81;100201.38;5111914;28;20043;-73
2021/09/06 00:06:41;;;;;;;15.82;5.50;;;;;;;6.34;75.86;100197.84;5115752;27;20511;-73
2021/09/06 00:09:08;;;;;;;10.60;5.57;;;;;;;6.29;75.84;100198.94;5120200;27;20108;-74
2021/09/06 00:11:34;;;;;;;13.07;5.28;;;;;;;6.27;76.17;100198.16;5112776;28;20092;-74
2021/09/06 00:14:00;;;;;;;13.55;5.97;;;;;;;6.35;76.02;100196.91;5112463;28;20048;-73
2021/09/06 00:16:25;;;;;;;13.68;5.45;;;;;;;6.46;75.66;100195.41;5113253;28;20040;-72
2021/09/06 00:18:52;;;;;;;15.23;5.82;;;;;;;6.37;75.85;100188.03;5112814;28;20051;-73
2021/09/06 00:21:17;;;;;;;11.48;5.05;;;;;;;6.34;75.95;100203.94;5113012;28;20481;-73
2021/09/06 00:23:43;;;;;;;12.15;5.30;;;;;;;6.36;75.78;100196.00;5113122;28;20479;-74
2021/09/06 00:26:10;;;;;;;12.18;5.20;;;;;;;6.32;76.10;100198.75;5112553;28;20040;-74
2021/09/06 00:28:36;;;;;;;11.23;4.97;;;;;;;6.32;75.98;100193.50;5112628;28;20086;-75
2021/09/06 00:31:02;;;;;;;9.65;4.60;;;;;;;6.34;75.53;100193.41;5112621;28;20070;-75
2021/09/06 00:33:28;;;;;;;11.88;4.25;;;;;;;6.32;76.64;100193.50;5094600;28;20126;-75
2021/09/06 00:35:57;;;;;;;11.30;4.85;;;;;;;6.27;76.13;100195.53;5094416;28;20050;-74
2021/09/06 00:38:24;;;;;;;11.18;5.00;;;;;;;6.23;76.34;100196.63;5112427;28;20108;-73
2021/09/06 00:40:50;;;;;;;10.98;4.97;;;;;;;6.17;76.58;100193.44;5094450;28;20476;-73
2021/09/06 00:43:16;;;;;;;13.85;5.45;;;;;;;6.18;76.19;100188.13;5112429;28;20047;-75
2021/09/06 00:45:44;;;;;;;9.23;4.45;;;;;;;6.19;76.22;100188.97;5112538;28;20066;-75
2021/09/06 00:48:10;;;;;;;;;;;;;;;6.19;76.06;100187.16;5078169;28;20191;-75
2021/09/06 00:50:36;;;;;;;9.85;4.47;;;;;;;6.19;75.79;100188.97;5112638;28;19927;-77
2021/09/06 00:53:03;;;;;;;12.77;4.43;;;;;;;6.18;76.53;100190.75;5112492;28;20046;-76
2021/09/06 00:55:28;;;;;;;13.38;4.80;;;;;;;6.21;76.10;100187.94;5112281;28;20085;-76
2021/09/06 00:57:57;;;;;;;;;;;;;;;6.23;76.73;100193.97;5112879;28;20472;-76
2021/09/06 01:00:22;;;;;;;12.15;4.72;;;;;;;6.21;76.05;100193.19;5111900;28;19919;-75
2021/09/06 01:02:48;;;;;;;10.20;4.13;;;;;;;6.27;76.19;100197.31;5112460;28;20040;-76
2021/09/06 01:05:15;;;;;;;8.93;4.88;;;;;;;6.28;76.33;100202.47;5111999;28;20055;-76
2021/09/06 01:08:00;;;;;;;12.07;4.10;;;;;;;6.36;75.11;100202.09;5111888;28;20241;-76
2021/09/06 01:11:10;;;;;;;35.92;13.88;;;;;;;6.43;75.67;100207.88;5095610;28;20396;-75
2021/09/06 01:13:55;;;;;;;9.43;4.93;;;;;;;6.47;75.04;100210.25;5093242;28;20064;-76
2021/09/06 01:16:22;;;;;;;9.45;4.47;;;;;;;6.51;75.17;100215.38;5112466;28;20171;-75
2021/09/06 01:18:48;;;;;;;8.40;4.10;;;;;;;6.53;74.85;100202.97;5112339;28;20492;-75
2021/09/06 01:21:15;;;;;;;13.70;4.82;;;;;;;6.42;75.20;100204.41;5112019;28;20664;-73
2021/09/06 01:23:58;;;;;;;9.40;4.40;;;;;;;6.25;75.17;100204.41;5094125;28;20164;-75
2021/09/06 01:26:29;;;;;;;8.90;4.00;;;;;;;6.07;75.87;100201.78;5093988;28;20047;-73
2021/09/06 01:28:55;;;;;;;9.77;4.05;;;;;;;5.98;76.03;100203.09;5094032;28;20564;-75
2021/09/06 01:31:26;;;;;;;13.15;4.35;;;;;;;5.96;76.01;100199.66;5093613;28;20063;-74
2021/09/06 01:33:52;;;;;;;12.43;4.78;;;;;;;6.01;76.07;100202.09;5111865;28;20439;-73
2021/09/06 01:36:19;;;;;;;12.50;3.95;;;;;;;5.99;75.89;100201.31;5093221;28;20456;-74
2021/09/06 01:38:47;;;;;;;9.98;3.67;;;;;;;6.00;76.16;100205.63;5093059;28;20096;-73
2021/09/06 01:41:12;;;;;;;15.27;6.07;;;;;;;6.09;75.82;100199.06;5111456;28;20044;-73
2021/09/06 01:43:38;;;;;;;11.10;4.03;;;;;;;6.20;75.65;100207.25;5111599;28;20079;-73
2021/09/06 01:46:04;;;;;;;6.90;3.55;;;;;;;6.27;75.43;100216.53;5092666;28;20039;-73
2021/09/06 01:48:32;;;;;;;7.90;3.15;;;;;;;6.29;75.12;100212.06;5093604;28;20051;-74
2021/09/06 01:50:58;;;;;;;11.98;3.42;;;;;;;6.30;74.58;100211.13;5093494;28;20413;-74
2021/09/06 01:53:24;;;;;;;10.90;4.13;;;;;;;6.31;75.21;100219.84;5111431;28;20488;-75
2021/09/06 01:55:53;;;;;;;11.80;3.72;;;;;;;6.33;75.14;100218.03;5093260;28;20412;-75
2021/09/06 01:58:19;;;;;;;7.70;3.38;;;;;;;6.36;74.83;100219.63;5111294;28;20039;-75
2021/09/06 02:00:45;;;;;;;8.43;3.30;;;;;;;6.34;74.92;100224.94;5095490;27;20461;-73
2021/09/06 02:03:11;;;;;;;8.00;3.60;;;;;;;6.38;74.19;100225.63;5092953;28;20046;-73
2021/09/06 02:05:48;;;;;;;8.33;3.93;;;;;;;6.33;74.52;100233.78;5092538;28;20654;-73
2021/09/06 02:08:21;;;;;;;9.43;3.55;;;;;;;6.28;75.08;100231.38;5092176;28;20055;-74
2021/09/06 02:10:47;;;;;;;8.98;3.72;;;;;;;6.31;75.07;100225.13;5093054;28;20044;-73
2021/09/06 02:13:13;;;;;;;9.27;3.97;;;;;;;6.34;75.44;100224.09;5092875;28;20064;-73
2021/09/06 02:15:41;;;;;;;13.33;4.67;;;;;;;6.33;74.47;100233.78;5092835;28;20559;-72
2021/09/06 02:18:07;;;;;;;11.18;4.00;;;;;;;6.40;74.81;100224.63;5111204;28;20333;-74
2021/09/06 02:20:34;;;;;;;8.70;3.85;;;;;;;6.43;75.24;100223.63;5109918;28;20059;-72
2021/09/06 02:23:03;;;;;;;14.20;4.35;;;;;;;6.31;74.71;100231.19;5093027;28;20200;-74
2021/09/06 02:25:31;;;;;;;;;;;;;;;6.32;74.84;100232.91;5110127;28;20051;-74
2021/09/06 02:27:59;;;;;;;10.98;3.50;;;;;;;6.29;75.60;100233.06;5093214;28;19970;-74
2021/09/06 02:30:25;;;;;;;8.05;3.55;;;;;;;6.28;75.08;100234.00;5111227;28;20051;-73
2021/09/06 02:32:51;;;;;;;12.07;3.90;;;;;;;6.29;75.31;100235.72;5092879;28;20047;-73
2021/09/06 02:35:20;;;;;;;12.50;4.03;;;;;;;6.30;75.08;100234.75;5110563;28;20086;-73
2021/09/06 02:37:46;;;;;;;9.10;4.82;;;;;;;6.19;75.07;100238.84;5092849;28;20059;-72
2021/09/06 02:40:16;;;;;;;10.05;4.88;;;;;;;6.13;75.50;100243.50;5109375;28;20071;-72
2021/09/06 02:42:43;;;;;;;15.85;6.82;;;;;;;6.14;75.69;100249.59;5111258;28;20511;-74
2021/09/06 02:45:10;;;;;;;10.23;4.60;;;;;;;6.11;75.91;100252.38;5092637;28;20055;-73
2021/09/06 02:47:37;;;;;;;14.77;4.25;;;;;;;6.07;75.58;100250.81;5110992;28;20035;-75
2021/09/06 02:50:04;;;;;;;11.80;4.07;;;;;;;6.06;75.73;100257.00;5092566;28;20130;-72
2021/09/06 02:52:32;;;;;;;9.35;3.80;;;;;;;6.10;75.95;100258.56;5109453;28;20054;-76
2021/09/06 02:54:59;;;;;;;14.23;7.90;;;;;;;5.99;76.78;100261.69;5092230;28;20051;-73
2021/09/06 02:57:25;;;;;;;13.98;4.95;;;;;;;6.01;77.00;100266.84;5092641;28;20487;-74
2021/09/06 02:59:51;;;;;;;7.57;3.50;;;;;;;5.98;76.40;100254.69;5114771;28;20100;-75
2021/09/06 03:02:18;;;;;;;16.08;7.20;;;;;;;6.01;77.04;100258.97;5096278;28;20035;-71
2021/09/06 03:04:44;;;;;;;12.05;3.95;;;;;;;6.09;76.97;100267.34;5114893;28;20050;-75
2021/09/06 03:07:12;;;;;;;8.88;4.60;;;;;;;6.11;76.75;100265.50;5099644;28;20047;-75
2021/09/06 03:09:38;;;;;;;10.80;3.97;;;;;;;6.17;76.24;100272.22;5106175;27;20051;-76
2021/09/06 03:12:04;;;;;;;8.80;4.50;;;;;;;6.17;76.44;100280.97;5115023;27;20039;-75
2021/09/06 03:14:31;;;;;;;12.53;4.97;;;;;;;6.26;76.11;100271.78;5115618;27;20053;-79
2021/09/06 03:16:57;;;;;;;14.13;4.30;;;;;;;6.34;75.91;100281.91;5134593;27;20284;-78
2021/09/06 03:19:23;;;;;;;10.55;3.97;;;;;;;6.36;75.78;100280.91;5099209;27;20053;-75
2021/09/06 03:21:52;;;;;;;8.20;3.80;;;;;;;6.43;76.06;100281.44;5134640;27;20122;-75
2021/09/06 03:24:20;;;;;;;13.15;4.25;;;;;;;6.52;75.63;100283.59;5116183;27;20051;-74
2021/09/06 03:26:46;;;;;;;13.88;5.18;;;;;;;6.55;74.60;100285.22;5116187;27;20047;-74
2021/09/06 03:29:13;;;;;;;8.82;4.25;;;;;;;6.51;75.08;100292.41;5115968;27;20047;-74
2021/09/06 03:31:38;;;;;;;12.73;5.82;;;;;;;6.56;75.18;100293.03;5134699;27;20095;-74
2021/09/06 03:34:04;;;;;;;17.73;6.00;;;;;;;6.61;75.08;100284.91;5116156;27;20055;-74
2021/09/06 03:36:31;;;;;;;10.98;4.95;;;;;;;6.68;74.64;100286.31;5115803;27;20408;-75
2021/09/06 03:38:57;;;;;;;11.32;4.57;;;;;;;6.86;74.49;100287.13;5115668;27;20090;-77
2021/09/06 03:41:30;;;;;;;12.32;4.32;;;;;;;7.12;74.07;100292.81;5100143;27;20088;-77
2021/09/06 03:43:57;;;;;;;11.60;4.57;;;;;;;7.13;73.02;100284.00;5116106;27;20050;-79
2021/09/06 03:46:23;;;;;;;11.32;4.75;;;;;;;7.16;72.83;100281.19;5115992;27;20492;-75
2021/09/06 03:48:53;;;;;;;11.27;4.68;;;;;;;7.16;72.79;100296.16;5115915;27;20572;-76
2021/09/06 03:51:19;;;;;;;14.23;4.63;;;;;;;7.14;71.97;100298.88;5115653;27;20039;-75
2021/09/06 03:53:44;;;;;;;8.82;4.15;;;;;;;7.12;72.83;100295.44;5116043;27;20047;-74
2021/09/06 03:56:13;;;;;;;10.88;4.35;;;;;;;7.29;72.13;100300.66;5115899;27;20046;-77
2021/09/06 03:58:41;;;;;;;14.70;5.30;;;;;;;7.39;71.67;100297.53;5115785;27;20051;-75
2021/09/06 04:01:07;;;;;;;16.77;6.13;;;;;;;7.44;71.59;100300.78;5115623;27;20523;-76
2021/09/06 04:03:33;;;;;;;18.52;4.28;;;;;;;7.60;71.63;100296.38;5115433;27;20062;-75
2021/09/06 04:06:01;;;;;;;18.85;6.30;;;;;;;7.83;71.85;100296.88;5115623;27;20541;-76
2021/09/06 04:08:27;;;;;;;14.27;6.07;;;;;;;8.64;70.00;100297.63;5114966;27;20043;-76
2021/09/06 04:10:53;;;;;;;11.55;4.38;;;;;;;9.81;66.60;100295.75;5115283;27;20514;-73
2021/09/06 04:13:23;;;;;;;16.90;5.22;;;;;;;11.14;62.03;100291.41;5115019;27;20043;-76
2021/09/06 04:15:53;;;;;;;13.00;3.58;;;;;;;12.32;57.71;100293.66;5115420;27;20035;-75
2021/09/06 04:18:20;;;;;;;10.40;4.17;;;;;;;13.68;54.59;100288.53;5114925;27;20054;-76
2021/09/06 04:20:46;;;;;;;9.93;3.97;;;;;;;14.97;50.44;100286.84;5115487;27;20373;-81
2021/09/06 04:23:12;;;;;;;17.10;4.43;;;;;;;15.65;48.17;100286.25;5114821;27;20127;-77
2021/09/06 04:25:38;;;;;;;15.15;5.53;;;;;;;16.64;46.37;100278.22;5133293;27;20131;-75
2021/09/06 04:28:04;;;;;;;11.32;4.85;;;;;;;17.66;43.25;100288.28;5096967;27;20122;-75
2021/09/06 04:30:30;;;;;;;13.15;4.82;;;;;;;18.23;42.32;100278.22;5133113;27;20570;-76
2021/09/06 04:32:56;;;;;;;10.65;4.82;;;;;;;19.11;40.17;100276.53;5114444;27;20591;-74
2021/09/06 04:35:22;;;;;;;10.52;4.30;;;;;;;20.02;38.64;100287.66;5114743;27;20139;-75
2021/09/06 04:37:49;;;;;;;14.60;4.65;;;;;;;20.34;36.02;100281.47;5114280;27;20051;-76
2021/09/06 04:40:19;;;;;;;13.07;4.43;;;;;;;21.09;36.11;100290.31;5114737;27;20043;-74
2021/09/06 04:42:50;;;;;;;17.30;5.55;;;;;;;21.28;34.76;100293.63;5114971;27;20111;-77
2021/09/06 04:45:17;;;;;;;15.43;5.03;;;;;;;22.06;34.07;100283.88;5114537;27;20053;-75
2021/09/06 04:47:43;;;;;;;11.57;4.65;;;;;;;21.97;32.79;100283.09;5097680;27;20174;-76
2021/09/06 04:50:10;;;;;;;10.10;3.92;;;;;;;22.48;32.28;100283.59;5114892;27;20043;-77
2021/09/06 04:52:37;;;;;;;30.05;12.15;;;;;;;21.06;33.31;100290.69;5097665;27;20035;-78
2021/09/06 04:55:07;;;;;;;9.52;4.32;;;;;;;19.76;35.68;100288.56;5114713;27;20046;-77
2021/09/06 04:57:33;;;;;;;16.20;5.30;;;;;;;20.00;36.20;100287.81;5114380;27;20121;-77
2021/09/06 05:00:00;;;;;;;10.93;4.80;;;;;;;20.83;34.04;100290.56;5132995;27;20038;-78
2021/09/06 05:02:45;;;;;;;12.52;4.68;;;;;;;22.38;32.09;100287.38;5133197;27;20125;-78
2021/09/06 05:05:12;;;;;;;11.65;5.07;;;;;;;23.33;30.90;100290.53;5114488;27;20038;-78
2021/09/06 05:07:37;;;;;;;11.07;4.40;;;;;;;23.57;29.95;100291.25;5114739;27;20578;-80
2021/09/06 05:10:06;;;;;;;8.70;3.80;;;;;;;24.30;28.59;100288.53;5113283;27;20127;-76
2021/09/06 05:12:32;;;;;;;13.25;4.90;;;;;;;24.84;28.14;100283.59;5112580;27;20039;-77
2021/09/06 05:14:59;;;;;;;13.25;5.68;;;;;;;25.46;27.04;100291.88;5112893;27;20465;-75
2021/09/06 05:17:25;;;;;;;14.05;4.88;;;;;;;25.07;27.47;100288.72;5131137;27;20042;-77
2021/09/06 05:19:52;;;;;;;15.75;4.25;;;;;;;25.86;26.89;100289.34;5079175;27;20043;-82
2021/09/06 05:22:18;;;;;;;12.05;4.88;;;;;;;25.22;26.46;100288.59;5112846;27;20133;-79
2021/09/06 05:24:44;;;;;;;18.37;6.50;;;;;;;24.34;27.96;100289.81;5096577;27;20048;-78
2021/09/06 05:27:10;;;;;;;22.75;10.65;;;;;;;25.50;27.17;100293.16;5096275;27;20288;-80
2021/09/06 05:29:37;;;;;;;10.50;5.18;;;;;;;25.91;25.77;100294.16;5062069;27;20102;-79
2021/09/06 05:32:03;;;;;;;17.25;5.32;;;;;;;26.40;24.90;100292.19;5113642;27;20035;-78
2021/09/06 05:34:30;;;;;;;13.35;4.70;;;;;;;25.67;25.86;100294.50;5114950;27;20039;-77
2021/09/06 05:36:56;;;;;;;19.35;8.10;;;;;;;26.24;25.46;100294.22;5132187;27;20035;-80
2021/09/06 05:39:23;;;;;;;15.90;5.25;;;;;;;27.02;24.42;100294.69;5115936;28;20031;-82
2021/09/06 05:41:59;;;;;;;12.35;5.50;;;;;;;27.40;23.47;100296.69;5100140;27;20089;-75
2021/09/06 05:44:27;;;;;;;12.75;6.18;;;;;;;27.60;22.97;100300.19;5095259;28;20035;-80
2021/09/06 05:46:53;;;;;;;11.57;4.65;;;;;;;28.15;22.45;100296.16;5097236;28;20491;-88
2021/09/06 05:49:20;;;;;;;12.77;4.30;;;;;;;28.65;22.14;100297.22;5064233;27;20076;-79
2021/09/06 05:51:51;;;;;;;10.68;4.60;;;;;;;29.32;21.39;100296.63;5114825;28;20281;-82
2021/09/06 05:54:27;;;;;;;15.10;5.22;;;;;;;29.69;20.81;100302.03;5082583;28;20047;-83
2021/09/06 05:56:53;;;;;;;14.20;4.95;;;;;;;28.95;21.39;100304.72;5018761;28;20079;-78
2021/09/06 05:59:24;;;;;;;9.38;4.97;;;;;;;29.31;20.67;100303.13;5065312;28;20044;-80
2021/09/06 06:01:50;;;;;;;9.65;4.38;;;;;;;29.67;20.12;100302.28;5068589;28;20052;-78
2021/09/06 06:04:16;;;;;;;8.75;4.70;;;;;;;29.81;19.72;100304.84;5052157;28;20051;-80
2021/09/06 06:06:46;;;;;;;22.52;4.68;;;;;;;30.33;19.57;100307.88;5036949;28;20092;-82
2021/09/06 06:09:13;;;;;;;13.65;4.63;;;;;;;28.72;20.90;100306.22;5003362;28;20556;-84
2021/09/06 06:11:40;;;;;;;9.45;4.22;;;;;;;29.98;20.13;100311.34;5003498;28;20173;-81
2021/09/06 06:14:13;;;;;;;11.02;4.57;;;;;;;30.85;19.24;100311.06;5022119;28;20056;-81
2021/09/06 06:16:42;;;;;;;8.07;3.92;;;;;;;31.83;17.99;100311.28;5053077;28;20078;-86
2021/09/06 06:19:08;;;;;;;12.20;3.80;;;;;;;32.14;17.82;100308.28;5035548;28;20070;-83
2021/09/06 06:21:49;;;;;;;10.18;5.47;;;;;;;31.56;17.51;100311.00;5038133;28;20187;-81
2021/09/06 06:24:35;;;;;;;12.45;4.05;;;;;;;30.65;17.89;100310.31;5041154;28;20048;-78
2021/09/06 06:27:20;;;;;;;10.35;4.63;;;;;;;30.73;17.45;100311.03;5051622;28;20044;-77
2021/09/06 06:29:46;;;;;;;12.10;7.18;;;;;;;30.76;17.24;100299.66;5051642;28;20044;-78
2021/09/06 06:32:15;;;;;;;11.27;4.13;;;;;;;31.05;17.20;100306.03;5070282;28;20040;-82
2021/09/06 06:34:42;;;;;;;9.88;4.03;;;;;;;31.53;16.90;100303.25;5070329;27;20062;-78
2021/09/06 06:37:08;;;;;;;8.73;4.43;;;;;;;32.47;15.65;100304.75;5100755;27;20039;-79
2021/09/06 06:39:35;;;;;;;11.70;4.57;;;;;;;31.35;16.55;100310.56;5117974;27;20092;-80
2021/09/06 06:42:01;;;;;;;;;;;;;;;30.62;17.02;100312.72;5101574;27;20340;-81
2021/09/06 06:44:30;;;;;;;6.75;3.03;;;;;;;29.95;17.92;100313.69;5101504;27;19915;-82
2021/09/06 06:46:56;;;;;;;6.47;3.08;;;;;;;30.34;16.77;100305.97;5084821;27;20047;-81
2021/09/06 06:49:25;;;;;;;11.93;3.15;;;;;;;30.91;16.98;100312.84;5118472;27;20403;-78
2021/09/06 06:51:51;;;;;;;;;;;;;;;28.16;17.98;100313.31;5084358;27;20035;-77
2021/09/06 06:54:18;;;;;;;6.18;2.55;;;;;;;28.81;18.40;100318.50;5117736;27;19915;-78
2021/09/06 06:56:46;;;;;;;7.15;2.65;;;;;;;28.97;18.02;100316.25;5086870;27;20050;-89
2021/09/06 06:59:13;;;;;;;9.07;4.15;;;;;;;27.58;18.81;100313.13;5068937;27;20496;-78
2021/09/06 07:01:39;;;;;;;8.93;4.20;;;;;;;28.96;17.79;100309.97;5119050;27;20054;-86
2021/09/06 07:04:05;;;;;;;7.32;4.18;;;;;;;28.53;18.14;100313.47;5103912;27;20510;-82
2021/09/06 07:06:34;;;;;;;10.98;4.13;;;;;;;29.25;17.86;100323.94;5139355;27;20052;-79
2021/09/06 07:09:04;;;;;;;7.30;3.00;;;;;;;27.67;18.91;100323.78;5087199;27;20328;-84
2021/09/06 07:11:31;;;;;;;33.95;23.00;;;;;;;25.49;21.03;100324.00;5070485;27;20050;-83
2021/09/06 07:14:00;;;;;;;6.45;3.10;;;;;;;24.55;22.43;100323.28;5089285;27;20235;-82
2021/09/06 07:16:27;;;;;;;9.87;2.70;;;;;;;25.98;21.24;100320.25;5104914;27;20031;-79
2021/09/06 07:18:52;;;;;;;11.73;4.65;;;;;;;25.22;21.46;100323.81;5108282;27;20069;-81
2021/09/06 07:21:19;;;;;;;6.40;2.47;;;;;;;24.28;23.12;100323.03;5120253;27;20487;-81
2021/09/06 07:23:45;;;;;;;7.13;3.28;;;;;;;25.83;21.85;100319.53;5103735;27;20053;-82
2021/09/06 07:26:11;;;;;;;9.45;3.05;;;;;;;25.62;21.48;100326.78;5118232;27;20155;-81
2021/09/06 07:28:38;;;;;;;10.05;4.30;;;;;;;25.08;21.48;100320.19;5084125;27;20050;-84
2021/09/06 07:31:04;;;;;;;5.68;3.00;;;;;;;22.90;23.61;100325.34;5086771;27;20039;-82
2021/09/06 07:33:30;;;;;;;9.82;2.90;;;;;;;21.23;25.89;100337.19;5066980;27;20037;-78
2021/09/06 07:36:14;;;;;;;6.10;2.60;;;;;;;19.89;27.16;100328.41;5136795;27;20042;-81
2021/09/06 07:38:41;;;;;;;6.60;2.40;;;;;;;19.14;26.91;100327.19;5101268;27;20055;-81
2021/09/06 07:41:08;;;;;;;6.20;4.57;;;;;;;18.50;27.42;100330.00;5102835;27;20121;-84
2021/09/06 07:43:36;;;;;;;4.32;2.63;;;;;;;17.94;28.01;100335.50;5102817;27;20047;-84
2021/09/06 07:46:02;;;;;;;8.65;3.10;;;;;;;17.58;28.31;100330.03;5103702;27;20123;-81
2021/09/06 07:48:28;;;;;;;9.00;3.60;;;;;;;17.15;28.67;100334.13;5117729;27;20049;-79
2021/09/06 07:50:56;;;;;;;;;;;;;;;17.01;29.38;100331.88;5085269;27;20037;-80
2021/09/06 07:53:23;;;;;;;6.07;3.40;;;;;;;17.19;29.96;100335.50;5103724;27;19919;-80
2021/09/06 07:55:49;;;;;;;7.63;2.93;;;;;;;18.88;28.18;100329.84;5118876;27;20047;-83
2021/09/06 07:58:15;;;;;;;8.00;3.30;;;;;;;22.42;24.88;100318.34;5102850;27;20039;-78
2021/09/06 08:00:42;;;;;;;7.35;2.95;;;;;;;23.72;22.29;100324.44;5116009;27;20047;-79
2021/09/06 08:03:08;;;;;;;8.00;2.83;;;;;;;21.94;23.09;100315.78;5116922;27;20090;-79
2021/09/06 08:05:35;;;;;;;8.70;2.33;;;;;;;20.17;24.63;100323.59;5100405;27;20121;-80
2021/09/06 08:08:09;;;;;;;11.68;2.60;;;;;;;21.79;24.00;100322.91;5101031;27;20039;-79
2021/09/06 08:10:37;;;;;;;;;;;;;;;20.99;24.00;100324.66;5083865;27;20433;-84
2021/09/06 08:13:03;;;;;;;8.70;3.33;;;;;;;20.23;24.76;100327.47;5083561;27;19919;-79
2021/09/06 08:15:31;;;;;;;6.30;2.72;;;;;;;19.22;25.91;100327.22;5118205;27;20439;-79
2021/09/06 08:18:00;;;;;;;10.73;3.17;;;;;;;18.46;27.14;100327.81;5119601;27;20049;-76
2021/09/06 08:20:28;;;;;;;4.15;2.20;;;;;;;17.54;29.02;100331.28;5118557;27;20070;-84
2021/09/06 08:22:54;;;;;;;13.20;4.15;;;;;;;17.34;28.64;100337.72;5068333;27;20047;-79
2021/09/06 08:25:20;;;;;;;5.85;2.70;;;;;;;16.81;29.78;100340.75;5118319;27;20426;-79
2021/09/06 08:27:46;;;;;;;7.10;2.70;;;;;;;16.45;30.29;100337.81;5099931;27;20530;-83
2021/09/06 08:30:17;;;;;;;6.53;3.03;;;;;;;16.16;30.91;100338.66;5084492;27;20047;-79
2021/09/06 08:32:44;;;;;;;5.22;2.55;;;;;;;15.89;31.19;100333.97;5137465;27;20039;-81
2021/09/06 08:35:10;;;;;;;8.95;3.53;;;;;;;18.89;28.41;100329.66;5119533;27;20051;-79
2021/09/06 08:37:37;;;;;;;12.80;3.53;;;;;;;22.63;24.74;100327.63;5098861;28;20055;-82
2021/09/06 08:40:06;;;;;;;7.57;3.08;;;;;;;24.89;21.33;100319.00;5101246;28;20051;-80
2021/09/06 08:42:33;;;;;;;12.73;2.72;;;;;;;26.41;20.25;100318.28;5115878;28;20070;-83
2021/09/06 08:45:01;;;;;;;6.63;2.13;;;;;;;23.70;20.42;100331.94;5097519;28;20051;-80
2021/09/06 08:47:28;;;;;;;4.18;2.20;;;;;;;22.02;22.91;100325.66;5097279;28;20088;-81
2021/09/06 08:49:55;;;;;;;6.35;2.35;;;;;;;22.05;22.69;100332.53;5097140;28;20039;-82
2021/09/06 08:52:22;;;;;;;5.05;2.60;;;;;;;21.96;22.49;100324.50;5079221;28;20047;-80
2021/09/06 08:54:48;;;;;;;5.63;2.22;;;;;;;23.78;21.15;100317.47;5079939;28;20050;-81
2021/09/06 08:57:14;;;;;;;6.20;2.30;;;;;;;23.85;20.67;100321.09;5113239;28;20492;-81
2021/09/06 08:59:44;;;;;;;6.82;2.35;;;;;;;22.59;22.08;100312.81;5112432;28;20047;-81
2021/09/06 09:02:25;;;;;;;10.48;3.03;;;;;;;20.46;24.59;100330.34;5114449;28;20571;-81
2021/09/06 09:05:04;;;;;;;9.13;3.00;;;;;;;19.78;26.39;100328.69;5115305;28;20036;-79
2021/09/06 09:07:40;;;;;;;13.18;4.53;;;;;;;19.11;27.40;100332.84;5099415;28;20048;-79
2021/09/06 09:10:39;;;;;;;10.23;3.13;;;;;;;18.26;28.03;100323.44;5073241;28;20056;-84
2021/09/06 09:13:32;;;;;;;7.28;2.58;;;;;;;17.59;28.93;100337.03;5056788;28;20109;-80
2021/09/06 09:16:17;;;;;;;8.18;3.17;;;;;;;17.17;30.09;100337.50;5072049;28;20075;-80
2021/09/06 09:19:09;;;;;;;9.52;3.38;;;;;;;16.81;30.27;100338.09;5049397;28;20135;-79
2021/09/06 09:22:04;;;;;;;10.95;4.60;;;;;;;16.68;30.93;100331.34;5000704;28;20057;-78
2021/09/06 09:25:02;;;;;;;7.45;3.55;;;;;;;17.74;30.61;100336.56;5012345;28;20136;-80
2021/09/06 09:27:52;;;;;;;10.27;3.55;;;;;;;18.26;28.49;100334.16;5011700;28;20054;-82
2021/09/06 09:30:32;;;;;;;9.35;3.25;;;;;;;18.73;28.77;100335.75;4997983;28;20049;-78
2021/09/06 09:33:30;;;;;;;11.15;3.25;;;;;;;22.16;24.88;100324.06;4973474;28;20058;-79
2021/09/06 09:36:35;;;;;;;5.70;3.17;;;;;;;23.68;22.84;100320.47;4957471;28;20054;-85
2021/09/06 09:39:20;;;;;;;4.10;2.60;;;;;;;24.84;21.06;100316.06;4980471;28;20158;-82
2021/09/06 09:41:51;;;;;;;8.17;2.67;;;;;;;25.59;20.47;100318.22;4960712;28;20078;-85
2021/09/06 09:44:50;;;;;;;8.07;2.80;;;;;;;26.82;19.64;100306.41;4961624;28;20298;-84
2021/09/06 09:47:36;;;;;;;9.68;4.00;;;;;;;25.53;19.39;100311.72;4963530;28;20055;-81
2021/09/06 09:50:03;;;;;;;6.82;3.67;;;;;;;25.67;20.07;100320.72;4974882;28;20057;-81
2021/09/06 09:52:32;;;;;;;6.75;3.05;;;;;;;26.42;19.07;100306.38;4927167;28;20182;-80
2021/09/06 09:55:01;;;;;;;8.35;3.38;;;;;;;26.83;18.75;100313.50;4961119;28;20058;-82
2021/09/06 09:57:27;;;;;;;5.72;2.65;;;;;;;27.56;17.65;100308.97;4942229;28;20467;-80
2021/09/06 09:59:53;;;;;;;7.07;3.78;;;;;;;26.98;17.74;100315.16;5047565;28;20128;-81
2021/09/06 10:02:26;;;;;;;6.57;2.80;;;;;;;26.38;18.70;100307.81;5071452;28;20053;-80
2021/09/06 10:04:57;;;;;;;5.50;3.03;;;;;;;24.60;20.11;100315.44;5055550;28;20048;-85
2021/09/06 10:07:25;;;;;;;6.97;2.22;;;;;;;23.52;21.49;100326.91;5055736;28;20139;-80
2021/09/06 10:09:54;;;;;;;6.65;2.88;;;;;;;23.88;20.94;100320.69;5024785;28;20079;-85
2021/09/06 10:12:29;;;;;;;11.13;3.75;;;;;;;22.98;22.04;100327.97;4967561;28;20408;-81
2021/09/06 10:15:01;;;;;;;5.18;2.50;;;;;;;21.47;23.37;100322.84;4980541;28;20061;-82
2021/09/06 10:17:47;;;;;;;5.80;2.47;;;;;;;20.64;24.38;100318.59;4949255;28;20555;-82
2021/09/06 10:20:13;;;;;;;5.60;2.40;;;;;;;20.39;24.58;100321.28;4985079;28;20505;-82
2021/09/06 10:22:40;;;;;;;8.20;3.58;;;;;;;19.60;26.48;100326.94;5012849;28;20045;-79
2021/09/06 10:25:09;;;;;;;12.57;3.55;;;;;;;19.44;26.88;100316.97;4987318;28;20494;-82
2021/09/06 10:27:39;;;;;;;10.23;2.42;;;;;;;19.82;26.04;100314.75;4990433;28;20100;-80
2021/09/06 10:30:08;;;;;;;10.52;3.40;;;;;;;20.23;25.57;100321.25;5021680;28;20540;-85
2021/09/06 10:32:38;;;;;;;7.38;2.90;;;;;;;20.98;25.80;100306.81;5008031;28;20073;-81
2021/09/06 10:35:09;;;;;;;4.88;2.55;;;;;;;20.70;25.05;100323.31;5019488;28;20095;-82
2021/09/06 10:37:37;;;;;;;5.05;3.50;;;;;;;20.89;24.31;100311.38;4974687;28;20131;-79
2021/09/06 10:40:04;;;;;;;8.00;2.70;;;;;;;21.52;23.69;100318.78;5040394;28;20620;-82
2021/09/06 10:42:32;;;;;;;6.50;2.50;;;;;;;22.23;22.61;100303.47;5005075;28;20336;-84
2021/09/06 10:45:00;;;;;;;9.02;2.60;;;;;;;22.50;21.60;100309.34;5005055;28;20121;-83
2021/09/06 10:47:33;;;;;;;;;;;;;;;22.55;21.87;100303.41;5004457;28;20040;-80
2021/09/06 10:50:15;;;;;;;6.60;2.28;;;;;;;21.59;21.78;100307.16;5056133;28;19920;-87
2021/09/06 10:52:44;;;;;;;5.30;2.20;;;;;;;21.59;22.87;100306.34;5079051;28;20096;-78
2021/09/06 10:55:11;;;;;;;6.38;2.15;;;;;;;21.46;23.95;100310.41;5080330;28;20043;-80
2021/09/06 10:57:39;;;;;;;6.47;2.20;;;;;;;20.94;24.04;100311.72;5095819;28;20069;-80
2021/09/06 11:00:05;;;;;;;9.65;2.28;;;;;;;20.78;23.93;100304.50;5094519;28;20052;-79
2021/09/06 11:02:32;;;;;;;;;;;;;;;20.39;25.65;100299.78;5095954;28;20413;-81
2021/09/06 11:04:58;;;;;;;7.63;2.50;;;;;;;20.21;25.26;100302.59;5078077;28;19926;-79
2021/09/06 11:07:24;;;;;;;6.03;2.15;;;;;;;19.97;25.59;100306.09;5094493;28;20036;-80
2021/09/06 11:09:51;;;;;;;4.20;1.83;;;;;;;20.01;26.37;100296.69;5093858;28;20055;-81
2021/09/06 11:12:17;;;;;;;5.07;2.00;;;;;;;19.42;26.61;100297.50;5095889;28;20040;-79
2021/09/06 11:14:47;;;;;;;5.13;2.10;;;;;;;19.58;27.43;100298.53;5095470;28;20105;-77
2021/09/06 11:17:24;;;;;;;8.98;3.20;;;;;;;19.88;26.46;100298.00;5095630;28;20071;-81
2021/09/06 11:19:52;;;;;;;;;;;;;;;19.92;26.73;100300.38;5096828;28;20100;-82
2021/09/06 11:22:22;;;;;;;7.03;2.45;;;;;;;19.67;26.86;100300.28;5097969;28;19916;-82
2021/09/06 11:24:49;;;;;;;6.40;3.30;;;;;;;19.33;26.84;100293.09;5096013;28;20176;-82
2021/09/06 11:27:26;;;;;;;;;;;;;;;19.09;27.83;100297.34;5097530;28;20048;-79
2021/09/06 11:29:53;;;;;;;16.00;7.43;;;;;;;18.70;28.04;100292.34;5096192;28;20361;-80
2021/09/06 11:32:20;;;;;;;38.67;17.80;;;;;;;18.61;29.07;100293.28;5103629;28;20055;-80
2021/09/06 11:34:48;;;;;;;6.50;2.80;;;;;;;18.64;28.18;100292.97;5103424;28;20053;-81
2021/09/06 11:37:15;;;;;;;7.75;3.45;;;;;;;18.68;28.84;100294.31;5088655;27;20395;-81